createdAt,value
2017-06-27T00:00:12.448Z,12.57
2017-06-27T00:01:21.336Z,12.54
2017-06-27T00:02:30.232Z,12.56
2017-06-27T00:03:39.121Z,12.59
2017-06-27T00:04:48.163Z,12.5
2017-06-27T00:05:57.385Z,12.49
2017-06-27T00:07:06.597Z,12.45
2017-06-27T00:08:16.140Z,12.49
2017-06-27T00:09:25.357Z,12.5
2017-06-27T00:10:34.394Z,12.49
2017-06-27T00:11:43.284Z,12.49
2017-06-27T00:12:52.495Z,12.52
2017-06-27T00:14:01.382Z,12.49
2017-06-27T00:15:10.274Z,12.42
2017-06-27T00:16:19.867Z,12.41
2017-06-27T00:17:28.756Z,12.46
2017-06-27T00:18:37.966Z,12.49
2017-06-27T00:19:46.853Z,12.38
2017-06-27T00:20:56.071Z,12.37
2017-06-27T00:22:05.013Z,12.31
2017-06-27T00:23:14.553Z,12.24
2017-06-27T00:24:23.763Z,12.27
2017-06-27T00:25:32.975Z,12.2
2017-06-27T00:26:41.866Z,12.2
2017-06-27T00:27:50.759Z,12.13
2017-06-27T00:28:59.648Z,12.07
2017-06-27T00:30:08.536Z,12.01
2017-06-27T00:31:17.420Z,12.05
2017-06-27T00:32:26.307Z,12.13
2017-06-27T00:33:35.450Z,12.05
2017-06-27T00:34:44.340Z,12.09
2017-06-27T00:35:53.551Z,12.1
2017-06-27T00:37:02.762Z,12.09
2017-06-27T00:38:11.651Z,12.02
2017-06-27T00:39:21.341Z,11.96
2017-06-27T00:40:30.554Z,11.85
2017-06-27T00:41:39.440Z,11.9
2017-06-27T00:42:48.323Z,11.82
2017-06-27T00:43:57.211Z,11.88
2017-06-27T00:45:06.483Z,11.86
2017-06-27T00:46:15.700Z,11.8
2017-06-27T00:47:24.588Z,11.76
2017-06-27T00:48:33.796Z,11.73
2017-06-27T00:49:42.683Z,11.8
2017-06-27T00:50:51.970Z,11.76
2017-06-27T00:52:01.221Z,11.75
2017-06-27T00:53:10.112Z,11.75
2017-06-27T00:54:18.997Z,11.65
2017-06-27T00:55:27.887Z,11.76
2017-06-27T00:56:36.772Z,11.7
2017-06-27T00:57:45.991Z,11.64
2017-06-27T00:58:55.209Z,11.58
2017-06-27T01:00:04.094Z,11.7
2017-06-27T01:01:13.631Z,11.55
2017-06-27T01:02:22.668Z,11.58
2017-06-27T01:03:32.202Z,11.6
2017-06-27T01:04:41.088Z,11.58
2017-06-27T01:05:50.631Z,11.54
2017-06-27T01:06:59.522Z,11.55
2017-06-27T01:08:08.459Z,11.47
2017-06-27T01:09:17.668Z,11.44
2017-06-27T01:10:26.560Z,11.47
2017-06-27T01:11:35.442Z,11.52
2017-06-27T01:12:44.653Z,11.44
2017-06-27T01:13:53.696Z,11.46
2017-06-27T01:15:02.581Z,11.44
2017-06-27T01:16:11.475Z,11.47
2017-06-27T01:17:20.368Z,11.42
2017-06-27T01:18:29.629Z,11.39
2017-06-27T01:19:39.417Z,11.33
2017-06-27T01:20:48.301Z,11.37
2017-06-27T01:21:57.189Z,11.49
2017-06-27T01:23:06.077Z,11.44
2017-06-27T01:24:14.970Z,11.37
2017-06-27T01:25:24.004Z,11.4
2017-06-27T01:26:32.895Z,11.37
2017-06-27T01:27:41.779Z,11.37
2017-06-27T01:28:50.663Z,11.33
2017-06-27T01:29:59.552Z,11.27
2017-06-27T01:31:08.863Z,11.33
2017-06-27T01:32:17.752Z,11.4
2017-06-27T01:33:26.642Z,11.36
2017-06-27T01:34:35.531Z,11.33
2017-06-27T01:35:44.771Z,11.29
2017-06-27T01:36:53.806Z,11.28
2017-06-27T01:38:02.694Z,11.27
2017-06-27T01:39:11.578Z,11.21
2017-06-27T01:40:20.465Z,11.28
2017-06-27T01:41:29.358Z,11.28
2017-06-27T01:42:38.354Z,11.19
2017-06-27T01:43:47.237Z,11.22
2017-06-27T01:44:56.449Z,11.11
2017-06-27T01:46:05.659Z,11.14
2017-06-27T01:47:14.546Z,11.11
2017-06-27T01:48:23.431Z,11.14
2017-06-27T01:49:32.325Z,11.19
2017-06-27T01:50:41.544Z,11.17
2017-06-27T01:51:50.430Z,11.07
2017-06-27T01:52:59.316Z,11.14
2017-06-27T01:54:08.207Z,11.11
2017-06-27T01:55:17.419Z,11.06
2017-06-27T01:56:26.954Z,11.06
2017-06-27T01:57:36.495Z,11.06
2017-06-27T01:58:45.715Z,11.11
2017-06-27T01:59:55.008Z,11.11
2017-06-27T02:01:03.893Z,11.04
2017-06-27T02:02:12.779Z,11.09
2017-06-27T02:03:21.661Z,11.02
2017-06-27T02:04:30.879Z,11
2017-06-27T02:05:39.818Z,10.97
2017-06-27T02:06:48.702Z,10.97
2017-06-27T02:07:57.584Z,11
2017-06-27T02:09:06.468Z,10.85
2017-06-27T02:10:15.358Z,10.91
2017-06-27T02:11:24.396Z,10.85
2017-06-27T02:12:33.288Z,10.92
2017-06-27T02:13:42.855Z,10.84
2017-06-27T02:14:52.064Z,10.86
2017-06-27T02:16:00.950Z,10.81
2017-06-27T02:17:10.310Z,10.86
2017-06-27T02:18:19.200Z,10.86
2017-06-27T02:19:28.086Z,10.86
2017-06-27T02:20:36.971Z,10.79
2017-06-27T02:21:45.855Z,10.81
2017-06-27T02:22:54.743Z,10.85
2017-06-27T02:24:03.956Z,10.88
2017-06-27T02:25:12.843Z,10.81
2017-06-27T02:26:21.728Z,10.84
2017-06-27T02:27:30.612Z,10.85
2017-06-27T02:28:39.550Z,10.86
2017-06-27T02:29:48.440Z,10.81
2017-06-27T02:30:57.324Z,10.76
2017-06-27T02:32:06.533Z,10.79
2017-06-27T02:33:15.742Z,10.73
2017-06-27T02:34:24.780Z,10.79
2017-06-27T02:35:33.993Z,10.78
2017-06-27T02:36:43.208Z,10.79
2017-06-27T02:37:52.418Z,10.79
2017-06-27T02:39:01.305Z,10.76
2017-06-27T02:40:10.339Z,10.74
2017-06-27T02:41:19.558Z,10.74
2017-06-27T02:42:28.449Z,10.71
2017-06-27T02:43:37.340Z,10.73
2017-06-27T02:44:46.555Z,10.7
2017-06-27T02:45:55.599Z,10.67
2017-06-27T02:47:04.486Z,10.73
2017-06-27T02:48:13.698Z,10.7
2017-06-27T02:49:22.585Z,10.71
2017-06-27T02:50:31.472Z,10.78
2017-06-27T02:51:40.881Z,10.71
2017-06-27T02:52:49.772Z,10.63
2017-06-27T02:53:59.314Z,10.64
2017-06-27T02:55:08.529Z,10.64
2017-06-27T02:56:17.738Z,10.64
2017-06-27T02:57:27.047Z,10.66
2017-06-27T02:58:35.932Z,10.64
2017-06-27T02:59:45.137Z,10.66
2017-06-27T03:00:54.027Z,10.66
2017-06-27T03:02:03.239Z,10.59
2017-06-27T03:03:12.442Z,10.56
2017-06-27T03:04:21.327Z,10.64
2017-06-27T03:05:30.209Z,10.45
2017-06-27T03:06:39.416Z,10.59
2017-06-27T03:07:48.629Z,10.53
2017-06-27T03:08:58.219Z,10.55
2017-06-27T03:10:07.450Z,10.51
2017-06-27T03:11:16.661Z,10.51
2017-06-27T03:12:25.545Z,10.52
2017-06-27T03:13:34.429Z,10.53
2017-06-27T03:14:43.416Z,10.53
2017-06-27T03:15:52.305Z,10.56
2017-06-27T03:17:01.189Z,10.44
2017-06-27T03:18:10.073Z,10.48
2017-06-27T03:19:18.959Z,10.45
2017-06-27T03:20:27.895Z,10.42
2017-06-27T03:21:36.786Z,10.41
2017-06-27T03:22:45.671Z,10.42
2017-06-27T03:23:54.567Z,10.44
2017-06-27T03:25:03.453Z,10.41
2017-06-27T03:26:12.343Z,10.44
2017-06-27T03:27:21.228Z,10.55
2017-06-27T03:28:30.109Z,10.47
2017-06-27T03:29:38.994Z,10.42
2017-06-27T03:30:48.527Z,10.52
2017-06-27T03:31:57.892Z,10.42
2017-06-27T03:33:07.102Z,10.51
2017-06-27T03:34:16.313Z,10.48
2017-06-27T03:35:25.200Z,10.51
2017-06-27T03:36:34.088Z,10.48
2017-06-27T03:37:43.397Z,10.55
2017-06-27T03:38:52.283Z,10.55
2017-06-27T03:40:01.167Z,10.55
2017-06-27T03:41:10.381Z,10.56
2017-06-27T03:42:19.269Z,10.61
2017-06-27T03:43:28.308Z,10.64
2017-06-27T03:44:37.196Z,10.67
2017-06-27T03:45:46.079Z,10.67
2017-06-27T03:46:55.284Z,10.64
2017-06-27T03:48:04.168Z,10.66
2017-06-27T03:49:13.530Z,10.67
2017-06-27T03:50:22.419Z,10.61
2017-06-27T03:51:31.961Z,10.6
2017-06-27T03:52:40.849Z,10.7
2017-06-27T03:53:49.736Z,10.73
2017-06-27T03:54:59.115Z,10.64
2017-06-27T03:56:08.007Z,10.71
2017-06-27T03:57:17.219Z,10.68
2017-06-27T03:58:26.459Z,10.76
2017-06-27T03:59:35.344Z,10.81
2017-06-27T04:00:44.332Z,10.78
2017-06-27T04:01:53.540Z,10.71
2017-06-27T04:03:02.425Z,10.84
2017-06-27T04:04:11.961Z,10.84
2017-06-27T04:05:21.179Z,10.88
2017-06-27T04:06:30.691Z,10.82
2017-06-27T04:07:39.577Z,10.76
2017-06-27T04:08:48.462Z,10.86
2017-06-27T04:09:57.351Z,11
2017-06-27T04:11:06.240Z,10.91
2017-06-27T04:12:15.599Z,11
2017-06-27T04:13:24.484Z,10.99
2017-06-27T04:14:33.370Z,10.97
2017-06-27T04:15:42.262Z,11.03
2017-06-27T04:16:51.151Z,11
2017-06-27T04:18:00.185Z,11.07
2017-06-27T04:19:09.717Z,11.06
2017-06-27T04:20:18.936Z,11.18
2017-06-27T04:21:27.822Z,11.07
2017-06-27T04:22:36.743Z,11.14
2017-06-27T04:23:45.782Z,11.24
2017-06-27T04:24:54.995Z,11.18
2017-06-27T04:26:04.236Z,11.21
2017-06-27T04:27:13.122Z,11.24
2017-06-27T04:28:22.332Z,11.27
2017-06-27T04:29:31.220Z,11.24
2017-06-27T04:30:40.159Z,11.33
2017-06-27T04:31:49.045Z,11.35
2017-06-27T04:32:57.930Z,11.36
2017-06-27T04:34:06.817Z,11.36
2017-06-27T04:35:16.279Z,11.37
2017-06-27T04:36:25.817Z,11.49
2017-06-27T04:37:34.707Z,11.52
2017-06-27T04:38:43.593Z,11.52
2017-06-27T04:39:52.480Z,11.51
2017-06-27T04:41:01.694Z,11.51
2017-06-27T04:42:10.587Z,11.55
2017-06-27T04:43:19.471Z,11.55
2017-06-27T04:44:28.356Z,11.52
2017-06-27T04:45:37.244Z,11.6
2017-06-27T04:46:46.621Z,11.62
2017-06-27T04:47:55.512Z,11.55
2017-06-27T04:49:04.399Z,11.58
2017-06-27T04:50:13.610Z,11.58
2017-06-27T04:51:22.495Z,11.72
2017-06-27T04:52:31.533Z,11.7
2017-06-27T04:53:40.784Z,11.69
2017-06-27T04:54:49.668Z,11.75
2017-06-27T04:55:58.556Z,11.8
2017-06-27T04:57:07.442Z,11.79
2017-06-27T04:58:16.484Z,11.73
2017-06-27T04:59:25.380Z,11.76
2017-06-27T05:00:34.268Z,11.83
2017-06-27T05:01:43.155Z,11.88
2017-06-27T05:02:52.368Z,11.96
2017-06-27T05:04:01.731Z,11.9
2017-06-27T05:05:10.627Z,12.01
2017-06-27T05:06:19.516Z,12.09
2017-06-27T05:07:28.403Z,12.13
2017-06-27T05:08:37.291Z,12.17
2017-06-27T05:09:46.326Z,12.12
2017-06-27T05:10:55.542Z,12.04
2017-06-27T05:12:04.752Z,12.2
2017-06-27T05:13:13.643Z,12.17
2017-06-27T05:14:22.530Z,12.24
2017-06-27T05:15:32.040Z,12.23
2017-06-27T05:16:40.928Z,12.27
2017-06-27T05:17:49.825Z,12.24
2017-06-27T05:18:58.713Z,12.31
2017-06-27T05:20:07.923Z,12.27
2017-06-27T05:21:17.060Z,12.29
2017-06-27T05:22:26.312Z,12.34
2017-06-27T05:23:35.204Z,12.41
2017-06-27T05:24:44.425Z,12.47
2017-06-27T05:25:53.317Z,12.38
2017-06-27T05:27:02.205Z,12.41
2017-06-27T05:28:11.092Z,12.45
2017-06-27T05:29:19.976Z,12.46
2017-06-27T05:30:28.867Z,12.52
2017-06-27T05:31:37.757Z,12.52
2017-06-27T05:32:47.023Z,12.52
2017-06-27T05:33:55.911Z,12.52
2017-06-27T05:35:05.446Z,12.67
2017-06-27T05:36:14.344Z,12.78
2017-06-27T05:37:23.882Z,12.78
2017-06-27T05:38:32.834Z,12.75
2017-06-27T05:39:42.048Z,12.83
2017-06-27T05:40:50.939Z,12.86
2017-06-27T05:41:59.832Z,12.87
2017-06-27T05:43:08.723Z,12.89
2017-06-27T05:44:18.238Z,12.92
2017-06-27T05:45:27.150Z,12.92
2017-06-27T05:46:36.362Z,13.01
2017-06-27T05:47:45.267Z,13.03
2017-06-27T05:48:54.469Z,13.03
2017-06-27T05:50:04.046Z,13.08
2017-06-27T05:51:13.362Z,13.1
2017-06-27T05:52:23.179Z,13.05
2017-06-27T05:53:32.205Z,13.19
2017-06-27T05:54:41.548Z,13.28
2017-06-27T05:55:50.581Z,13.17
2017-06-27T05:56:59.672Z,13.22
2017-06-27T05:58:08.732Z,13.23
2017-06-27T05:59:17.682Z,13.32
2017-06-27T06:00:26.962Z,13.33
2017-06-27T06:01:36.112Z,13.48
2017-06-27T06:02:45.394Z,13.52
2017-06-27T06:03:54.877Z,13.51
2017-06-27T06:05:04.190Z,13.49
2017-06-27T06:06:13.683Z,13.54
2017-06-27T06:07:23.308Z,13.48
2017-06-27T06:08:32.315Z,13.52
2017-06-27T06:09:41.313Z,13.59
2017-06-27T06:10:50.660Z,13.63
2017-06-27T06:11:59.634Z,13.75
2017-06-27T06:13:09.108Z,13.75
2017-06-27T06:14:18.402Z,13.78
2017-06-27T06:15:27.524Z,13.79
2017-06-27T06:16:36.543Z,13.85
2017-06-27T06:17:45.524Z,13.85
2017-06-27T06:18:54.507Z,13.91
2017-06-27T06:20:04.375Z,13.95
2017-06-27T06:21:13.668Z,13.95
2017-06-27T06:22:22.674Z,13.91
2017-06-27T06:23:31.948Z,14
2017-06-27T06:24:41.002Z,13.96
2017-06-27T06:25:50.253Z,14.04
2017-06-27T06:26:59.519Z,14
2017-06-27T06:28:08.409Z,14.07
2017-06-27T06:29:17.298Z,14.09
2017-06-27T06:30:26.190Z,14.12
2017-06-27T06:31:35.736Z,14.18
2017-06-27T06:32:45.283Z,14.18
2017-06-27T06:33:54.178Z,14.15
2017-06-27T06:35:03.072Z,14.28
2017-06-27T06:36:12.938Z,14.27
2017-06-27T06:37:22.509Z,14.33
2017-06-27T06:38:31.400Z,14.42
2017-06-27T06:39:40.293Z,14.46
2017-06-27T06:40:49.838Z,14.45
2017-06-27T06:41:59.050Z,14.54
2017-06-27T06:43:07.941Z,14.54
2017-06-27T06:44:17.504Z,14.57
2017-06-27T06:45:26.397Z,14.62
2017-06-27T06:46:35.321Z,14.57
2017-06-27T06:47:44.458Z,14.52
2017-06-27T06:48:54.083Z,14.54
2017-06-27T06:50:03.228Z,14.52
2017-06-27T06:51:12.967Z,14.5
2017-06-27T06:52:22.250Z,14.64
2017-06-27T06:53:31.138Z,14.65
2017-06-27T06:54:40.358Z,14.65
2017-06-27T06:55:50.229Z,14.73
2017-06-27T06:56:59.125Z,14.73
2017-06-27T06:58:08.314Z,14.77
2017-06-27T06:59:17.529Z,14.77
2017-06-27T07:00:26.417Z,14.86
2017-06-27T07:01:35.636Z,14.94
2017-06-27T07:02:44.864Z,15.01
2017-06-27T07:03:54.233Z,14.94
2017-06-27T07:05:03.122Z,14.96
2017-06-27T07:06:12.341Z,14.99
2017-06-27T07:07:21.883Z,15.07
2017-06-27T07:08:30.770Z,15.2
2017-06-27T07:09:40.283Z,15.16
2017-06-27T07:10:49.831Z,15.25
2017-06-27T07:11:59.048Z,15.2
2017-06-27T07:13:07.938Z,15.25
2017-06-27T07:14:17.483Z,15.32
2017-06-27T07:15:26.536Z,15.29
2017-06-27T07:16:35.747Z,15.32
2017-06-27T07:17:45.286Z,15.41
2017-06-27T07:18:54.504Z,15.51
2017-06-27T07:20:03.393Z,15.54
2017-06-27T07:21:12.863Z,15.56
2017-06-27T07:22:21.758Z,15.56
2017-06-27T07:23:30.651Z,15.56
2017-06-27T07:24:39.871Z,15.59
2017-06-27T07:25:48.774Z,15.65
2017-06-27T07:26:57.818Z,15.74
2017-06-27T07:28:06.711Z,15.84
2017-06-27T07:29:16.261Z,15.93
2017-06-27T07:30:25.797Z,15.84
2017-06-27T07:31:34.692Z,15.89
2017-06-27T07:32:44.308Z,15.94
2017-06-27T07:33:53.528Z,15.9
2017-06-27T07:35:02.742Z,15.94
2017-06-27T07:36:11.958Z,16.02
2017-06-27T07:37:21.176Z,16.04
2017-06-27T07:38:30.115Z,15.97
2017-06-27T07:39:39.007Z,16
2017-06-27T07:40:48.226Z,16.01
2017-06-27T07:41:57.117Z,16
2017-06-27T07:43:06.661Z,16.01
2017-06-27T07:44:16.030Z,16.12
2017-06-27T07:45:25.245Z,16.11
2017-06-27T07:46:34.470Z,16.11
2017-06-27T07:47:43.684Z,16.11
2017-06-27T07:48:52.588Z,16.27
2017-06-27T07:50:01.626Z,16.33
2017-06-27T07:51:11.170Z,16.42
2017-06-27T07:52:20.716Z,16.39
2017-06-27T07:53:29.604Z,16.42
2017-06-27T07:54:38.820Z,16.38
2017-06-27T07:55:48.391Z,16.34
2017-06-27T07:56:57.287Z,16.33
2017-06-27T07:58:06.181Z,16.35
2017-06-27T07:59:15.397Z,16.3
2017-06-27T08:00:24.934Z,16.35
2017-06-27T08:01:34.132Z,16.31
2017-06-27T08:02:43.673Z,16.45
2017-06-27T08:03:52.567Z,16.49
2017-06-27T08:05:02.116Z,16.46
2017-06-27T08:06:11.329Z,16.58
2017-06-27T08:07:20.934Z,16.7
2017-06-27T08:08:30.164Z,16.68
2017-06-27T08:09:39.377Z,16.76
2017-06-27T08:10:48.939Z,16.81
2017-06-27T08:11:57.832Z,16.85
2017-06-27T08:13:07.203Z,16.81
2017-06-27T08:14:16.100Z,16.89
2017-06-27T08:15:24.991Z,16.89
2017-06-27T08:16:33.886Z,16.83
2017-06-27T08:17:43.110Z,16.88
2017-06-27T08:18:52.198Z,16.82
2017-06-27T08:20:01.091Z,16.82
2017-06-27T08:21:09.991Z,16.79
2017-06-27T08:22:19.534Z,16.89
2017-06-27T08:23:28.756Z,16.93
2017-06-27T08:24:37.751Z,16.89
2017-06-27T08:25:46.973Z,16.97
2017-06-27T08:26:55.868Z,16.94
2017-06-27T08:28:04.760Z,16.94
2017-06-27T08:29:13.986Z,16.94
2017-06-27T08:30:23.035Z,16.91
2017-06-27T08:31:31.929Z,16.91
2017-06-27T08:32:40.819Z,17
2017-06-27T08:33:50.039Z,17.08
2017-06-27T08:34:59.257Z,17.11
2017-06-27T08:36:08.621Z,17.19
2017-06-27T08:37:18.166Z,17.22
2017-06-27T08:38:27.708Z,17.16
2017-06-27T08:39:36.927Z,17.34
2017-06-27T08:40:46.180Z,17.34
2017-06-27T08:41:55.327Z,17.4
2017-06-27T08:43:04.546Z,17.4
2017-06-27T08:44:14.088Z,17.43
2017-06-27T08:45:23.308Z,17.49
2017-06-27T08:46:32.204Z,17.56
2017-06-27T08:47:41.351Z,17.62
2017-06-27T08:48:50.566Z,17.64
2017-06-27T08:49:59.456Z,17.7
2017-06-27T08:51:08.346Z,17.75
2017-06-27T08:52:17.564Z,17.78
2017-06-27T08:53:26.610Z,17.74
2017-06-27T08:54:35.499Z,17.77
2017-06-27T08:55:45.038Z,17.9
2017-06-27T08:56:53.933Z,17.79
2017-06-27T08:58:02.823Z,17.9
2017-06-27T08:59:11.863Z,17.84
2017-06-27T09:00:20.760Z,17.75
2017-06-27T09:01:29.981Z,17.74
2017-06-27T09:02:38.874Z,17.89
2017-06-27T09:03:48.093Z,17.87
2017-06-27T09:04:56.985Z,18.08
2017-06-27T09:06:05.881Z,18.08
2017-06-27T09:07:15.098Z,18.1
2017-06-27T09:08:23.991Z,18.14
2017-06-27T09:09:33.209Z,18.14
2017-06-27T09:10:42.946Z,18.2
2017-06-27T09:11:52.199Z,18.17
2017-06-27T09:13:01.096Z,18.2
2017-06-27T09:14:09.991Z,18.15
2017-06-27T09:15:19.213Z,18.26
2017-06-27T09:16:28.760Z,18.15
2017-06-27T09:17:37.657Z,18.2
2017-06-27T09:18:46.550Z,18.37
2017-06-27T09:19:56.416Z,18.33
2017-06-27T09:21:05.310Z,18.45
2017-06-27T09:22:14.203Z,18.51
2017-06-27T09:23:23.753Z,18.54
2017-06-27T09:24:32.971Z,18.57
2017-06-27T09:25:42.191Z,18.55
2017-06-27T09:26:51.092Z,18.57
2017-06-27T09:28:00.685Z,18.62
2017-06-27T09:29:09.590Z,18.69
2017-06-27T09:30:18.806Z,18.82
2017-06-27T09:31:27.696Z,18.82
2017-06-27T09:32:36.590Z,18.85
2017-06-27T09:33:45.915Z,18.94
2017-06-27T09:34:54.808Z,19.08
2017-06-27T09:36:04.020Z,19.08
2017-06-27T09:37:13.240Z,19.08
2017-06-27T09:38:22.787Z,19.19
2017-06-27T09:39:31.832Z,19.28
2017-06-27T09:40:40.723Z,19.33
2017-06-27T09:41:49.957Z,19.16
2017-06-27T09:42:58.852Z,19.29
2017-06-27T09:44:07.746Z,19.31
2017-06-27T09:45:17.117Z,19.4
2017-06-27T09:46:26.037Z,19.5
2017-06-27T09:47:34.935Z,19.51
2017-06-27T09:48:43.828Z,19.61
2017-06-27T09:49:53.045Z,19.71
2017-06-27T09:51:02.239Z,19.66
2017-06-27T09:52:11.465Z,19.68
2017-06-27T09:53:20.682Z,19.66
2017-06-27T09:54:29.578Z,19.76
2017-06-27T09:55:38.798Z,19.87
2017-06-27T09:56:48.120Z,20.02
2017-06-27T09:57:57.337Z,19.99
2017-06-27T09:59:06.228Z,19.91
2017-06-27T10:00:15.451Z,20.06
2017-06-27T10:01:24.358Z,20.13
2017-06-27T10:02:33.651Z,20.18
2017-06-27T10:03:42.569Z,20.2
2017-06-27T10:04:52.448Z,20.21
2017-06-27T10:06:01.663Z,20.23
2017-06-27T10:07:10.555Z,20.13
2017-06-27T10:08:20.076Z,20.1
2017-06-27T10:09:28.982Z,20.1
2017-06-27T10:10:38.206Z,20.08
2017-06-27T10:11:47.429Z,20.18
2017-06-27T10:12:56.326Z,20.26
2017-06-27T10:14:06.169Z,20.28
2017-06-27T10:15:15.393Z,20.36
2017-06-27T10:16:24.288Z,20.47
2017-06-27T10:17:33.503Z,20.64
2017-06-27T10:18:42.722Z,20.62
2017-06-27T10:19:51.715Z,20.59
2017-06-27T10:21:00.617Z,20.52
2017-06-27T10:22:09.844Z,20.47
2017-06-27T10:23:19.395Z,20.52
2017-06-27T10:24:28.620Z,20.48
2017-06-27T10:25:37.610Z,20.33
2017-06-27T10:26:46.833Z,20.32
2017-06-27T10:27:56.049Z,20.36
2017-06-27T10:29:04.941Z,20.5
2017-06-27T10:30:14.497Z,20.51
2017-06-27T10:31:23.826Z,20.51
2017-06-27T10:32:32.721Z,20.43
2017-06-27T10:33:41.628Z,20.51
2017-06-27T10:34:51.179Z,20.5
2017-06-27T10:36:00.074Z,20.35
2017-06-27T10:37:09.633Z,20.48
2017-06-27T10:38:18.861Z,20.31
2017-06-27T10:39:27.785Z,20.35
2017-06-27T10:40:37.002Z,20.33
2017-06-27T10:41:46.220Z,20.5
2017-06-27T10:42:55.113Z,20.51
2017-06-27T10:44:04.008Z,20.51
2017-06-27T10:45:12.904Z,20.5
2017-06-27T10:46:22.770Z,20.58
2017-06-27T10:47:31.663Z,20.72
2017-06-27T10:48:40.860Z,20.77
2017-06-27T10:49:50.083Z,20.84
2017-06-27T10:50:58.980Z,20.92
2017-06-27T10:52:07.874Z,21.01
2017-06-27T10:53:17.417Z,20.94
2017-06-27T10:54:26.315Z,21.14
2017-06-27T10:55:35.541Z,21.17
2017-06-27T10:56:44.486Z,21.12
2017-06-27T10:57:53.707Z,21.13
2017-06-27T10:59:03.252Z,20.98
2017-06-27T11:00:12.631Z,21.01
2017-06-27T11:01:21.852Z,21.16
2017-06-27T11:02:31.073Z,21.17
2017-06-27T11:03:40.296Z,21.25
2017-06-27T11:04:49.842Z,21.32
2017-06-27T11:05:59.534Z,21.27
2017-06-27T11:07:09.089Z,21.38
2017-06-27T11:08:17.986Z,21.38
2017-06-27T11:09:26.878Z,21.46
2017-06-27T11:10:35.771Z,21.47
2017-06-27T11:11:45.044Z,21.61
2017-06-27T11:12:53.941Z,21.72
2017-06-27T11:14:02.837Z,21.72
2017-06-27T11:15:11.732Z,21.64
2017-06-27T11:16:20.633Z,21.65
2017-06-27T11:17:29.682Z,21.74
2017-06-27T11:18:38.583Z,21.77
2017-06-27T11:19:47.824Z,21.65
2017-06-27T11:20:57.049Z,21.59
2017-06-27T11:22:05.947Z,21.44
2017-06-27T11:23:15.497Z,21.43
2017-06-27T11:24:25.047Z,21.59
2017-06-27T11:25:33.951Z,21.69
2017-06-27T11:26:42.846Z,21.71
2017-06-27T11:27:52.066Z,21.82
2017-06-27T11:29:01.439Z,21.86
2017-06-27T11:30:10.665Z,21.91
2017-06-27T11:31:19.891Z,21.8
2017-06-27T11:32:28.789Z,21.8
2017-06-27T11:33:38.012Z,21.92
2017-06-27T11:34:47.011Z,21.96
2017-06-27T11:35:55.943Z,22.03
2017-06-27T11:37:05.174Z,22.21
2017-06-27T11:38:14.072Z,22.35
2017-06-27T11:39:23.292Z,22.3
2017-06-27T11:40:32.565Z,22.24
2017-06-27T11:41:41.472Z,22.14
2017-06-27T11:42:50.371Z,22.22
2017-06-27T11:43:59.592Z,22.22
2017-06-27T11:45:08.815Z,22.12
2017-06-27T11:46:18.289Z,22.18
2017-06-27T11:47:27.191Z,22.33
2017-06-27T11:48:36.087Z,22.4
2017-06-27T11:49:45.308Z,22.33
2017-06-27T11:50:54.529Z,22.42
2017-06-27T11:52:03.760Z,22.43
2017-06-27T11:53:12.989Z,22.49
2017-06-27T11:54:21.890Z,22.57
2017-06-27T11:55:31.114Z,22.61
2017-06-27T11:56:40.017Z,22.67
2017-06-27T11:57:49.017Z,22.73
2017-06-27T11:58:58.239Z,22.9
2017-06-27T12:00:07.464Z,23.01
2017-06-27T12:01:16.387Z,23.15
2017-06-27T12:02:25.294Z,23
2017-06-27T12:03:34.246Z,22.98
2017-06-27T12:04:43.467Z,23.05
2017-06-27T12:05:52.695Z,23.22
2017-06-27T12:07:01.927Z,23.38
2017-06-27T12:08:10.828Z,23.1
2017-06-27T12:09:20.052Z,23.2
2017-06-27T12:10:29.274Z,23.15
2017-06-27T12:11:38.508Z,23.39
2017-06-27T12:12:47.421Z,23.54
2017-06-27T12:13:56.373Z,23.6
2017-06-27T12:15:05.608Z,23.6
2017-06-27T12:16:14.514Z,23.88
2017-06-27T12:17:23.434Z,23.68
2017-06-27T12:18:32.394Z,23.87
2017-06-27T12:19:41.300Z,23.93
2017-06-27T12:20:50.682Z,24.06
2017-06-27T12:21:59.588Z,24.16
2017-06-27T12:23:08.821Z,23.9
2017-06-27T12:24:18.071Z,23.9
2017-06-27T12:25:27.358Z,23.97
2017-06-27T12:26:36.761Z,23.95
2017-06-27T12:27:45.666Z,23.98
2017-06-27T12:28:54.897Z,24.06
2017-06-27T12:30:03.803Z,24.03
2017-06-27T12:31:12.710Z,23.98
2017-06-27T12:32:22.418Z,24.12
2017-06-27T12:33:31.327Z,24.2
2017-06-27T12:34:40.605Z,24.32
2017-06-27T12:35:49.834Z,24.21
2017-06-27T12:36:58.743Z,24.21
2017-06-27T12:38:07.647Z,24.16
2017-06-27T12:39:16.883Z,24.25
2017-06-27T12:40:26.162Z,24.4
2017-06-27T12:41:35.066Z,24.58
2017-06-27T12:42:44.314Z,24.53
2017-06-27T12:43:53.593Z,24.55
2017-06-27T12:45:02.504Z,24.57
2017-06-27T12:46:11.485Z,24.55
2017-06-27T12:47:20.410Z,24.61
2017-06-27T12:48:29.319Z,24.46
2017-06-27T12:49:38.625Z,24.49
2017-06-27T12:50:48.794Z,24.45
2017-06-27T12:51:58.070Z,24.55
2017-06-27T12:53:07.303Z,24.52
2017-06-27T12:54:16.535Z,24.43
2017-06-27T12:55:26.247Z,24.1
2017-06-27T12:56:35.152Z,24.09
2017-06-27T12:57:44.058Z,24.02
2017-06-27T12:58:53.287Z,24.05
2017-06-27T13:00:02.521Z,23.97
2017-06-27T13:01:11.729Z,23.9
2017-06-27T13:02:20.958Z,23.83
2017-06-27T13:03:29.907Z,23.75
2017-06-27T13:04:39.303Z,23.76
2017-06-27T13:05:48.203Z,23.69
2017-06-27T13:06:57.406Z,23.7
2017-06-27T13:08:06.635Z,23.79
2017-06-27T13:09:15.864Z,23.94
2017-06-27T13:10:25.098Z,24.02
2017-06-27T13:11:34.322Z,23.97
2017-06-27T13:12:43.375Z,23.57
2017-06-27T13:13:52.597Z,23.47
2017-06-27T13:15:01.500Z,23.39
2017-06-27T13:16:11.046Z,23.51
2017-06-27T13:17:20.595Z,23.39
2017-06-27T13:18:29.508Z,23.39
2017-06-27T13:19:38.410Z,23.5
2017-06-27T13:20:47.639Z,23.69
2017-06-27T13:21:56.543Z,23.91
2017-06-27T13:23:05.781Z,23.91
2017-06-27T13:24:15.430Z,24
2017-06-27T13:25:24.401Z,24.02
2017-06-27T13:26:33.310Z,24.16
2017-06-27T13:27:42.234Z,24.34
2017-06-27T13:28:51.135Z,24.28
2017-06-27T13:30:00.367Z,24.31
2017-06-27T13:31:09.273Z,24.2
2017-06-27T13:32:18.822Z,24.16
2017-06-27T13:33:27.723Z,24.18
2017-06-27T13:34:36.956Z,24.31
2017-06-27T13:35:46.340Z,24.18
2017-06-27T13:36:55.568Z,24.1
2017-06-27T13:38:04.473Z,24.05
2017-06-27T13:39:13.379Z,24.16
2017-06-27T13:40:22.675Z,24.28
2017-06-27T13:41:31.883Z,24.43
2017-06-27T13:42:40.821Z,24.4
2017-06-27T13:43:50.061Z,24.62
2017-06-27T13:44:59.631Z,24.81
2017-06-27T13:46:08.882Z,25.03
2017-06-27T13:47:18.233Z,25.06
2017-06-27T13:48:27.161Z,24.83
2017-06-27T13:49:36.437Z,24.84
2017-06-27T13:50:45.343Z,24.99
2017-06-27T13:51:54.248Z,25.1
2017-06-27T13:53:03.957Z,25.13
2017-06-27T13:54:12.863Z,25.14
2017-06-27T13:55:22.100Z,24.93
2017-06-27T13:56:31.034Z,24.9
2017-06-27T13:57:40.291Z,24.88
2017-06-27T13:58:49.843Z,24.65
2017-06-27T13:59:58.755Z,24.3
2017-06-27T14:01:07.684Z,24.18
2017-06-27T14:02:16.919Z,24.09
2017-06-27T14:03:25.832Z,23.9
2017-06-27T14:04:34.944Z,23.87
2017-06-27T14:05:44.177Z,23.91
2017-06-27T14:06:53.085Z,23.9
2017-06-27T14:08:02.310Z,23.84
2017-06-27T14:09:11.862Z,23.73
2017-06-27T14:10:21.582Z,23.54
2017-06-27T14:11:31.133Z,23.54
2017-06-27T14:12:40.033Z,23.6
2017-06-27T14:13:48.939Z,23.69
2017-06-27T14:14:57.847Z,23.73
2017-06-27T14:16:07.377Z,23.65
2017-06-27T14:17:16.602Z,23.6
2017-06-27T14:18:25.828Z,23.65
2017-06-27T14:19:35.425Z,23.63
2017-06-27T14:20:44.327Z,23.48
2017-06-27T14:21:53.799Z,23.5
2017-06-27T14:23:02.709Z,23.6
2017-06-27T14:24:11.933Z,23.51
2017-06-27T14:25:21.156Z,23.66
2017-06-27T14:26:30.055Z,23.39
2017-06-27T14:27:39.364Z,23.17
2017-06-27T14:28:48.589Z,23.27
2017-06-27T14:29:57.489Z,23.39
2017-06-27T14:31:06.719Z,23.28
2017-06-27T14:32:15.949Z,23.36
2017-06-27T14:33:25.334Z,23.48
2017-06-27T14:34:34.234Z,23.55
2017-06-27T14:35:43.460Z,23.54
2017-06-27T14:36:52.698Z,23.63
2017-06-27T14:38:01.939Z,23.51
2017-06-27T14:39:11.088Z,23.54
2017-06-27T14:40:20.638Z,23.51
2017-06-27T14:41:29.870Z,23.46
2017-06-27T14:42:38.775Z,23.38
2017-06-27T14:43:47.676Z,23.48
2017-06-27T14:44:57.061Z,23.5
2017-06-27T14:46:05.960Z,23.55
2017-06-27T14:47:15.518Z,23.72
2017-06-27T14:48:24.747Z,23.72
2017-06-27T14:49:34.318Z,23.73
2017-06-27T14:50:43.693Z,23.69
2017-06-27T14:51:52.923Z,23.75
2017-06-27T14:53:01.826Z,23.94
2017-06-27T14:54:11.378Z,23.8